Impacts METAR Board
IDs:

KPHX - Phoenix/Sky Harbor, AZ, US

Updated at: 2100 UTC 21 Sep 2021
Potential Impact None Slight Moderate High
Time 21/09Z 21/10Z 21/11Z 21/12Z 21/13Z 21/14Z 21/15Z 21/16Z 21/17Z 21/18Z 21/19Z 21/20Z 21/21Z
Temp79 76 76 74 74 76 80 84 88 94 95 97 100
Dewpt47 48 46 47 47 46 45 45 45 43 41 40 39
Altim29.98 29.98 29.99 30.02 30.04 30.06 30.09 30.10 30.11 30.11 30.09 30.07 30.04
VIS10 10 10 10 10 10 10 10 10 10 10 10 10
CIG-- -- -- -- -- -- -- -- -- -- -- -- --
CoverCLRCLRCLRCLRFEWFEWFEWCLRCLRCLRCLRCLRCLR
FltCatVFRVFRVFRVFRVFRVFRVFRVFRVFRVFRVFRVFRVFR
WX--------------------------
WDir11009011012011013070110120802800
WSpd3 0 5 4 4 3 4 8 5 5 4 4 3
WGst-- -- -- -- -- -- -- -- -- -- -- -- --
Raw hourly METARs
KPHX 210851Z 11003KT 10SM CLR 26/08 A2998 RMK AO2 SLP131 T02610083 51010
KPHX 210951Z 00000KT 10SM CLR 24/09 A2998 RMK AO2 SLP134 T02440089
KPHX 211051Z 09005KT 10SM CLR 24/08 A2999 RMK AO2 SLP136 T02440078
KPHX 211151Z 11004KT 10SM CLR 23/08 A3002 RMK AO2 SLP145 T02330083 10294 20233 53013
KPHX 211251Z 12004KT 10SM FEW120 23/08 A3004 RMK AO2 SLP155 T02330083
KPHX 211351Z 11003KT 10SM FEW250 24/08 A3006 RMK AO2 SLP162 T02440078
KPHX 211451Z 13004KT 10SM FEW250 27/07 A3009 RMK AO2 SLP168 T02670072 51023
KPHX 211551Z 07008KT 10SM CLR 29/07 A3010 RMK AO2 SLP174 T02890072
KPHX 211651Z 11005KT 10SM CLR 31/07 A3011 RMK AO2 SLP176 T03110072 $
KPHX 211751Z 12005KT 10SM CLR 34/06 A3011 RMK AO2 SLP175 T03440061 10344 20233 50006 $
KPHX 211851Z 08004KT 10SM CLR 35/05 A3009 RMK AO2 SLP169 T03500050 $
KPHX 211951Z 28004KT 10SM CLR 36/04 A3007 RMK AO2 SLP161 T03610044
KPHX 212051Z VRB03KT 10SM CLR 38/04 A3004 RMK AO2 SLP153 T03780039 58021



Page loaded:  21:12 UTC  |   02:12 PM Pacific  |   03:12 PM Mountain  |   04:12 PM Central  |   05:12 PM Eastern

 

ADVISORIES

FORECASTS

FORECASTS

OBSERVATIONS

USER TOOLS

ABOUT US